Time;durP1;ratioP1;P1;durP2;ratioP2;P2;SDS_P1;SDS_P2;PMS_P1;PMS_P2;Temp;Humidity;BMP_temperature;BMP_pressure;BME280_temperature;BME280_humidity;BME280_pressure;Samples;Min_cycle;Max_cycle;Signal;HPM_P1;HPM_P2
2021/10/19 00:00:14;;;;;;;22.92;7.90;;;17.90;99.90;;;;;;2095827;28;20021;-63
2021/10/19 00:01:15;;;;;;;20.73;7.70;;;18.00;99.90;;;;;;2091045;28;20033;-63
2021/10/19 00:02:15;;;;;;;19.15;7.85;;;18.00;99.90;;;;;;2090664;28;20048;-62
2021/10/19 00:03:16;;;;;;;23.38;8.57;;;17.90;99.90;;;;;;2092581;28;20024;-63
2021/10/19 00:04:17;;;;;;;21.05;8.18;;;18.00;99.90;;;;;;2094440;28;20100;-62
2021/10/19 00:05:18;;;;;;;25.33;8.05;;;18.00;99.90;;;;;;2095620;28;20088;-62
2021/10/19 00:06:18;;;;;;;23.63;7.97;;;17.90;99.90;;;;;;2095345;28;20098;-63
2021/10/19 00:07:19;;;;;;;24.85;8.20;;;17.90;99.90;;;;;;2095118;28;20048;-62
2021/10/19 00:08:19;;;;;;;24.52;8.35;;;17.90;99.90;;;;;;2095272;28;20703;-62
2021/10/19 00:09:20;;;;;;;26.30;9.00;;;17.90;99.90;;;;;;2095097;28;20088;-64
2021/10/19 00:10:21;;;;;;;27.15;8.95;;;17.90;99.90;;;;;;2085625;28;20021;-62
2021/10/19 00:11:22;;;;;;;25.93;8.63;;;17.90;99.90;;;;;;2093215;28;20503;-62
2021/10/19 00:12:23;;;;;;;26.60;8.90;;;18.00;99.90;;;;;;2087312;28;20343;-63
2021/10/19 00:13:24;;;;;;;27.80;8.68;;;17.90;99.90;;;;;;2090414;28;20025;-63
2021/10/19 00:14:25;;;;;;;28.33;9.45;;;17.90;99.90;;;;;;2088949;28;20556;-63
2021/10/19 00:15:25;;;;;;;27.15;9.45;;;17.90;99.90;;;;;;2089715;28;20500;-63
2021/10/19 00:16:26;;;;;;;28.48;8.98;;;17.90;99.90;;;;;;2086930;28;20025;-63
2021/10/19 00:17:27;;;;;;;28.20;8.95;;;17.90;99.90;;;;;;2089166;28;20059;-63
2021/10/19 00:18:28;;;;;;;26.98;9.30;;;17.90;99.90;;;;;;2086519;28;20547;-63
2021/10/19 00:19:28;;;;;;;27.98;8.88;;;17.90;99.90;;;;;;2080479;28;20440;-63
2021/10/19 00:20:29;;;;;;;29.52;9.77;;;17.90;99.90;;;;;;2097084;28;20108;-63
2021/10/19 00:21:30;;;;;;;32.10;9.13;;;17.90;99.90;;;;;;2105716;28;20034;-63
2021/10/19 00:22:31;;;;;;;26.07;9.10;;;17.90;99.90;;;;;;2086138;28;20025;-63
2021/10/19 00:23:32;;;;;;;30.85;8.77;;;17.90;99.90;;;;;;2082690;28;20022;-63
2021/10/19 00:24:32;;;;;;;30.88;9.50;;;17.90;99.90;;;;;;2089565;28;20025;-63
2021/10/19 00:25:33;;;;;;;32.10;9.23;;;17.90;99.90;;;;;;2088714;28;20748;-63
2021/10/19 00:26:34;;;;;;;28.92;9.18;;;17.90;99.90;;;;;;2089366;28;20112;-63
2021/10/19 00:27:36;;;;;;;34.13;9.90;;;17.90;99.90;;;;;;2089804;28;20104;-62
2021/10/19 00:28:38;;;;;;;31.83;10.05;;;17.90;99.90;;;;;;2089479;28;20055;-63
2021/10/19 00:29:39;;;;;;;32.63;8.85;;;17.90;99.90;;;;;;2086029;28;20512;-63
2021/10/19 00:30:40;;;;;;;32.78;10.02;;;17.90;99.90;;;;;;2086568;28;20017;-62
2021/10/19 00:31:41;;;;;;;31.85;9.63;;;17.90;99.90;;;;;;2087274;28;20021;-63
2021/10/19 00:32:42;;;;;;;30.77;9.63;;;17.90;99.90;;;;;;2086960;28;20079;-63
2021/10/19 00:33:42;;;;;;;30.73;9.20;;;17.90;99.90;;;;;;2090099;28;20678;-63
2021/10/19 00:34:43;;;;;;;30.65;9.68;;;17.90;99.90;;;;;;2090175;28;20028;-63
2021/10/19 00:35:43;;;;;;;27.05;9.43;;;17.90;99.90;;;;;;2090274;28;20059;-63
2021/10/19 00:36:44;;;;;;;34.58;9.13;;;17.90;99.90;;;;;;2090445;28;20056;-63
2021/10/19 00:37:45;;;;;;;27.80;9.98;;;17.90;99.90;;;;;;2089255;28;20025;-63
2021/10/19 00:38:46;;;;;;;25.00;9.07;;;17.90;99.90;;;;;;2089949;28;20435;-62
2021/10/19 00:39:46;;;;;;;25.80;9.10;;;17.90;99.90;;;;;;2080602;28;20108;-63
2021/10/19 00:40:47;;;;;;;34.22;9.20;;;17.90;99.90;;;;;;2088649;28;20103;-62
2021/10/19 00:41:48;;;;;;;31.75;9.27;;;17.90;99.90;;;;;;2089045;28;20025;-62
2021/10/19 00:42:49;;;;;;;25.80;9.25;;;17.90;99.90;;;;;;2089100;28;20479;-63
2021/10/19 00:43:52;;;;;;;26.40;8.98;;;17.90;99.90;;;;;;2088584;28;20021;-62
2021/10/19 00:44:52;;;;;;;27.42;9.18;;;17.90;99.90;;;;;;2089869;28;20033;-62
2021/10/19 00:45:54;;;;;;;29.13;10.55;;;17.90;99.90;;;;;;2083161;28;20017;-62
2021/10/19 00:46:57;;;;;;;29.95;9.07;;;17.80;99.90;;;;;;2087793;28;20021;-62
2021/10/19 00:47:58;;;;;;;25.70;8.65;;;17.90;99.90;;;;;;2089621;28;20044;-62
2021/10/19 00:48:59;;;;;;;31.02;9.60;;;17.90;99.90;;;;;;2088658;28;20021;-63
2021/10/19 00:50:00;;;;;;;27.08;8.95;;;17.90;99.90;;;;;;2089007;28;20139;-63
2021/10/19 00:51:00;;;;;;;24.25;9.20;;;17.90;99.90;;;;;;2088687;28;20021;-63
2021/10/19 00:52:01;;;;;;;24.48;9.23;;;17.90;99.90;;;;;;2080584;28;20029;-63
2021/10/19 00:53:03;;;;;;;24.45;9.32;;;17.90;99.90;;;;;;2089214;28;20040;-63
2021/10/19 00:54:05;;;;;;;29.30;9.27;;;17.90;99.90;;;;;;2083035;28;20036;-63
2021/10/19 00:55:07;;;;;;;24.92;9.50;;;17.80;99.90;;;;;;2086226;28;20057;-63
2021/10/19 00:56:09;;;;;;;28.15;10.00;;;17.90;99.90;;;;;;2087961;28;20028;-63
2021/10/19 00:57:10;;;;;;;28.95;9.35;;;17.90;99.90;;;;;;2089681;28;20036;-63
2021/10/19 00:58:11;;;;;;;29.38;9.27;;;17.90;99.90;;;;;;2089802;28;20036;-63
2021/10/19 00:59:14;;;;;;;36.13;9.80;;;17.80;99.90;;;;;;2083516;28;20053;-62
2021/10/19 01:00:15;;;;;;;29.38;9.25;;;17.90;99.90;;;;;;2083460;28;20024;-64
2021/10/19 01:01:17;;;;;;;28.00;9.88;;;17.90;99.90;;;;;;2077018;28;20029;-63
2021/10/19 01:02:18;;;;;;;27.95;9.18;;;17.90;99.90;;;;;;2080652;28;20025;-63
2021/10/19 01:03:19;;;;;;;26.58;9.55;;;17.80;99.90;;;;;;2089114;28;20021;-62
2021/10/19 01:04:19;;;;;;;24.08;9.25;;;17.80;99.90;;;;;;2084964;28;20025;-62
2021/10/19 01:05:20;;;;;;;28.85;9.50;;;17.90;99.90;;;;;;2080910;28;20037;-62
2021/10/19 01:06:21;;;;;;;32.03;10.02;;;17.80;99.90;;;;;;2102993;28;20057;-63
2021/10/19 01:07:23;;;;;;;27.48;9.52;;;17.90;99.90;;;;;;2105574;28;20016;-63
2021/10/19 01:08:23;;;;;;;28.98;10.43;;;17.90;99.90;;;;;;2086895;28;20468;-64
2021/10/19 01:09:24;;;;;;;26.10;10.13;;;17.90;99.90;;;;;;2081063;28;20025;-63
2021/10/19 01:10:25;;;;;;;26.00;9.52;;;17.90;99.90;;;;;;2089477;28;20028;-62
2021/10/19 01:11:25;;;;;;;33.13;9.57;;;17.90;99.90;;;;;;2089526;28;20480;-62
2021/10/19 01:12:26;;;;;;;27.02;11.13;;;17.90;99.90;;;;;;2087027;28;20021;-62
2021/10/19 01:13:28;;;;;;;28.80;10.35;;;17.90;99.90;;;;;;2086546;28;20070;-63
2021/10/19 01:14:29;;;;;;;27.48;10.70;;;17.90;99.90;;;;;;2083397;28;20028;-63
2021/10/19 01:15:33;;;;;;;29.88;10.30;;;17.90;99.90;;;;;;2080421;28;20017;-63
2021/10/19 01:16:34;;;;;;;30.15;11.32;;;17.90;99.90;;;;;;2085078;28;20404;-63
2021/10/19 01:17:40;;;;;;;39.63;11.32;;;17.90;99.90;;;;;;2085167;28;20022;-63
2021/10/19 01:18:43;;;;;;;29.15;10.63;;;17.90;99.90;;;;;;2104668;28;20028;-62
2021/10/19 01:19:49;;;;;;;28.30;10.27;;;17.90;99.90;;;;;;2100275;28;20057;-63
2021/10/19 01:20:50;;;;;;;27.42;9.77;;;17.90;99.90;;;;;;2085088;28;20508;-63
2021/10/19 01:21:56;;;;;;;30.13;10.05;;;17.90;99.90;;;;;;2095570;28;20024;-63
2021/10/19 01:22:58;;;;;;;30.55;10.10;;;17.90;99.90;;;;;;2089191;28;20057;-63
2021/10/19 01:23:58;;;;;;;28.83;10.82;;;17.80;99.90;;;;;;2089445;28;20055;-63
2021/10/19 01:24:59;;;;;;;35.22;10.98;;;17.80;99.90;;;;;;2088757;28;20467;-62
2021/10/19 01:26:06;;;;;;;30.75;11.13;;;17.80;99.90;;;;;;2087829;28;20043;-63
2021/10/19 01:27:07;;;;;;;30.63;10.57;;;17.80;99.90;;;;;;2086208;28;20025;-63
2021/10/19 01:28:10;;;;;;;31.58;11.13;;;17.90;99.90;;;;;;2081928;28;20053;-63
2021/10/19 01:29:12;;;;;;;35.45;11.20;;;17.90;99.90;;;;;;2079792;28;20751;-63
2021/10/19 01:30:14;;;;;;;30.77;10.63;;;17.90;99.90;;;;;;2080672;28;20016;-63
2021/10/19 01:31:14;;;;;;;38.67;11.07;;;17.90;99.90;;;;;;2080862;28;20022;-63
2021/10/19 01:32:15;;;;;;;34.63;10.43;;;17.90;99.90;;;;;;2080133;28;20101;-63
2021/10/19 01:33:16;;;;;;;31.15;11.32;;;17.80;99.90;;;;;;2080692;28;20083;-63
2021/10/19 01:34:18;;;;;;;32.38;10.80;;;17.90;99.90;;;;;;2082634;28;20029;-63
2021/10/19 01:35:18;;;;;;;32.43;10.57;;;17.90;99.90;;;;;;2087672;28;20033;-63
2021/10/19 01:36:19;;;;;;;33.10;10.75;;;17.90;99.90;;;;;;2088543;28;20271;-63
2021/10/19 01:37:20;;;;;;;32.92;11.23;;;17.90;99.90;;;;;;2086277;28;20013;-63
2021/10/19 01:38:23;;;;;;;26.05;10.02;;;17.90;99.90;;;;;;2080527;28;20022;-63
2021/10/19 01:39:24;;;;;;;31.10;10.85;;;17.80;99.90;;;;;;2079045;28;20029;-63
2021/10/19 01:40:25;;;;;;;25.23;10.32;;;17.80;99.90;;;;;;2081107;28;20100;-62
2021/10/19 01:41:25;;;;;;;38.55;10.95;;;17.90;99.90;;;;;;2082666;28;20021;-62
2021/10/19 01:42:26;;;;;;;26.80;10.23;;;17.90;99.90;;;;;;2088207;28;20159;-62
2021/10/19 01:43:28;;;;;;;34.17;10.60;;;17.90;99.90;;;;;;2081133;28;20045;-63
2021/10/19 01:44:31;;;;;;;26.50;10.35;;;17.90;99.90;;;;;;2080854;28;20076;-63
2021/10/19 01:45:32;;;;;;;32.53;10.23;;;17.80;99.90;;;;;;2081037;28;20013;-63
2021/10/19 01:46:33;;;;;;;30.85;10.82;;;17.90;99.90;;;;;;2079060;28;20763;-63
2021/10/19 01:47:33;;;;;;;26.45;10.60;;;17.90;99.90;;;;;;2085511;28;20036;-63
2021/10/19 01:48:34;;;;;;;32.40;10.32;;;17.90;99.90;;;;;;2087297;28;20110;-63
2021/10/19 01:49:35;;;;;;;31.52;10.80;;;17.80;99.90;;;;;;2084303;28;20104;-63
2021/10/19 01:50:37;;;;;;;32.58;10.57;;;17.90;99.90;;;;;;2079065;28;20036;-63
2021/10/19 01:51:38;;;;;;;31.98;10.85;;;17.90;99.90;;;;;;2086530;28;20419;-63
2021/10/19 01:52:41;;;;;;;28.67;10.23;;;17.90;99.90;;;;;;2083966;28;20021;-63
2021/10/19 01:53:42;;;;;;;29.17;10.98;;;17.90;99.90;;;;;;2088698;28;20038;-63
2021/10/19 01:54:43;;;;;;;28.20;10.88;;;17.90;99.90;;;;;;2083178;28;20064;-64
2021/10/19 01:55:43;;;;;;;27.50;9.27;;;17.90;99.90;;;;;;2080312;28;20026;-63
2021/10/19 01:56:44;;;;;;;32.90;10.38;;;17.90;99.90;;;;;;2080222;28;20033;-62
2021/10/19 01:57:45;;;;;;;28.38;10.38;;;17.90;99.90;;;;;;2084433;28;20017;-63
2021/10/19 01:58:46;;;;;;;33.08;10.10;;;17.90;99.90;;;;;;2089200;28;20484;-63
2021/10/19 01:59:46;;;;;;;33.70;10.82;;;17.90;99.90;;;;;;2081087;28;20013;-63
2021/10/19 02:00:47;;;;;;;31.25;10.30;;;17.90;99.90;;;;;;2079761;28;20036;-63
2021/10/19 02:01:48;;;;;;;27.80;10.75;;;17.90;99.90;;;;;;2079473;28;20042;-62
2021/10/19 02:02:49;;;;;;;32.33;10.80;;;17.90;99.90;;;;;;2086480;28;20093;-63
2021/10/19 02:03:50;;;;;;;29.50;10.65;;;17.90;99.90;;;;;;2080974;28;20029;-64
2021/10/19 02:04:50;;;;;;;28.75;10.88;;;17.90;99.90;;;;;;2079967;28;20108;-62
2021/10/19 02:05:51;;;;;;;33.50;10.73;;;17.90;99.90;;;;;;2080040;28;20025;-62
2021/10/19 02:06:52;;;;;;;25.42;10.35;;;17.90;99.90;;;;;;2087994;28;20025;-62
2021/10/19 02:07:54;;;;;;;29.10;10.35;;;17.90;99.90;;;;;;2081336;28;20090;-62
2021/10/19 02:08:54;;;;;;;24.48;10.68;;;18.00;99.90;;;;;;2072364;28;20074;-63
2021/10/19 02:09:55;;;;;;;28.02;10.45;;;17.90;99.90;;;;;;2080068;28;20544;-63
2021/10/19 02:10:56;;;;;;;29.65;10.73;;;18.00;99.90;;;;;;2080263;28;20103;-64
2021/10/19 02:11:56;;;;;;;24.23;10.60;;;18.00;99.90;;;;;;2088033;28;20111;-63
2021/10/19 02:12:58;;;;;;;32.35;10.30;;;18.00;99.90;;;;;;2085603;28;20025;-62
2021/10/19 02:13:58;;;;;;;29.52;11.02;;;17.90;99.90;;;;;;2081003;28;20033;-63
2021/10/19 02:14:59;;;;;;;28.65;10.48;;;18.00;99.90;;;;;;2082130;28;20171;-63
2021/10/19 02:16:00;;;;;;;26.65;11.10;;;17.90;99.90;;;;;;2088162;28;20021;-63
2021/10/19 02:17:01;;;;;;;32.00;11.23;;;18.00;99.90;;;;;;2086797;28;20099;-62
2021/10/19 02:18:03;;;;;;;29.05;10.77;;;18.00;99.90;;;;;;2088757;28;20027;-63
2021/10/19 02:19:03;;;;;;;33.60;10.68;;;18.00;99.90;;;;;;2088430;28;20567;-62
2021/10/19 02:20:06;;;;;;;29.35;10.15;;;18.00;99.90;;;;;;2074522;28;20124;-62
2021/10/19 02:21:06;;;;;;;32.63;11.30;;;18.00;99.90;;;;;;2081566;28;20053;-62
2021/10/19 02:22:07;;;;;;;30.65;11.57;;;18.00;99.90;;;;;;2079774;28;20029;-63
2021/10/19 02:23:08;;;;;;;30.27;11.18;;;18.00;99.90;;;;;;2082671;28;20080;-63
2021/10/19 02:24:09;;;;;;;34.75;10.60;;;18.00;99.90;;;;;;2084523;28;20418;-63
2021/10/19 02:25:10;;;;;;;32.00;11.07;;;18.00;99.90;;;;;;2082663;28;20025;-63
2021/10/19 02:26:11;;;;;;;26.70;10.38;;;18.00;99.90;;;;;;2080781;28;20020;-63
2021/10/19 02:27:11;;;;;;;26.13;10.48;;;18.00;99.90;;;;;;2085835;28;20392;-63
2021/10/19 02:28:12;;;;;;;29.85;10.82;;;18.00;99.90;;;;;;2086081;28;20024;-63
2021/10/19 02:29:14;;;;;;;24.77;10.88;;;18.00;99.90;;;;;;2089087;28;20028;-63
2021/10/19 02:30:16;;;;;;;30.73;11.05;;;18.00;99.90;;;;;;2084979;28;20071;-63
2021/10/19 02:31:16;;;;;;;30.10;12.05;;;18.00;99.90;;;;;;2080007;28;20504;-63
2021/10/19 02:32:18;;;;;;;26.98;11.02;;;18.00;99.90;;;;;;2083582;28;20024;-63
2021/10/19 02:33:19;;;;;;;23.17;10.75;;;18.00;99.90;;;;;;2088684;28;20029;-63
2021/10/19 02:34:22;;;;;;;32.88;11.35;;;18.00;99.90;;;;;;2088307;28;20034;-63
2021/10/19 02:35:23;;;;;;;25.88;10.75;;;18.00;99.90;;;;;;2084375;28;20029;-63
2021/10/19 02:36:24;;;;;;;24.05;10.38;;;18.00;99.90;;;;;;2080409;28;20635;-63
2021/10/19 02:37:24;;;;;;;25.35;9.85;;;18.00;99.90;;;;;;2087049;28;20033;-63
2021/10/19 02:38:25;;;;;;;25.90;10.38;;;18.00;99.90;;;;;;2081278;28;20528;-63
2021/10/19 02:39:26;;;;;;;37.05;10.32;;;18.00;99.90;;;;;;2088774;28;20074;-63
2021/10/19 02:40:27;;;;;;;26.30;11.05;;;18.00;99.90;;;;;;2082255;28;20055;-63
2021/10/19 02:41:28;;;;;;;24.95;10.18;;;18.00;99.90;;;;;;2071789;28;20553;-63
2021/10/19 02:42:28;;;;;;;30.10;11.07;;;18.00;99.90;;;;;;2078537;28;20477;-63
2021/10/19 02:43:29;;;;;;;32.08;10.95;;;18.00;99.90;;;;;;2079730;28;20021;-63
2021/10/19 02:44:30;;;;;;;30.75;11.23;;;18.00;99.90;;;;;;2088391;28;20049;-63
2021/10/19 02:45:31;;;;;;;26.63;10.43;;;18.00;99.90;;;;;;2088386;28;20873;-63
2021/10/19 02:46:31;;;;;;;28.90;11.70;;;18.00;99.90;;;;;;2088715;28;20070;-63
2021/10/19 02:47:32;;;;;;;28.38;11.73;;;18.00;99.90;;;;;;2083311;28;20029;-63
2021/10/19 02:48:33;;;;;;;23.38;10.23;;;18.00;99.90;;;;;;2080775;28;20702;-62
2021/10/19 02:49:33;;;;;;;33.63;11.93;;;18.00;99.90;;;;;;2087655;28;20507;-62
2021/10/19 02:50:34;;;;;;;26.13;10.77;;;18.00;99.90;;;;;;2085672;28;20032;-62
2021/10/19 02:51:35;;;;;;;28.65;10.20;;;18.00;99.90;;;;;;2080555;28;20025;-63
2021/10/19 02:52:37;;;;;;;23.10;9.85;;;18.00;99.90;;;;;;2085309;28;20017;-62
2021/10/19 02:53:38;;;;;;;28.40;10.95;;;18.00;99.90;;;;;;2082714;28;20022;-62
2021/10/19 02:54:38;;;;;;;27.70;10.50;;;18.00;99.90;;;;;;2088189;28;20036;-62
2021/10/19 02:55:39;;;;;;;28.25;11.20;;;17.90;99.90;;;;;;2086647;28;20114;-63
2021/10/19 02:56:40;;;;;;;26.60;11.20;;;18.00;99.90;;;;;;2078043;28;20526;-62
2021/10/19 02:57:40;;;;;;;21.73;10.23;;;18.00;99.90;;;;;;2084679;28;20025;-64
2021/10/19 02:58:41;;;;;;;24.52;10.23;;;18.00;99.90;;;;;;2088383;28;20028;-63
2021/10/19 02:59:42;;;;;;;23.08;10.50;;;18.00;99.90;;;;;;2087920;28;20079;-63
2021/10/19 03:00:42;;;;;;;25.90;10.60;;;18.00;99.90;;;;;;2083771;28;20028;-62
2021/10/19 03:01:43;;;;;;;32.58;11.70;;;18.00;99.90;;;;;;2083313;28;20063;-64
2021/10/19 03:02:44;;;;;;;24.95;10.65;;;18.00;99.90;;;;;;2086562;28;20099;-63
2021/10/19 03:03:45;;;;;;;28.02;10.35;;;18.00;99.90;;;;;;2082612;28;20064;-63
2021/10/19 03:04:46;;;;;;;29.48;10.93;;;18.00;99.90;;;;;;2087419;28;20108;-63
2021/10/19 03:05:47;;;;;;;23.85;11.13;;;18.00;99.90;;;;;;2085726;28;20021;-63
2021/10/19 03:06:48;;;;;;;21.83;10.82;;;18.00;99.90;;;;;;2080186;28;20096;-63
2021/10/19 03:07:48;;;;;;;22.05;10.23;;;18.00;99.90;;;;;;2079857;28;20101;-63
2021/10/19 03:08:49;;;;;;;21.65;10.27;;;18.00;99.90;;;;;;2080693;28;20013;-63
2021/10/19 03:09:50;;;;;;;19.13;10.13;;;18.00;99.90;;;;;;2080268;28;20580;-63
2021/10/19 03:10:50;;;;;;;20.98;10.30;;;18.00;99.90;;;;;;2079576;28;20031;-63
2021/10/19 03:11:51;;;;;;;25.02;10.15;;;18.00;99.90;;;;;;2082272;28;20025;-63
2021/10/19 03:12:52;;;;;;;27.23;11.10;;;18.00;99.90;;;;;;2080045;28;20070;-63
2021/10/19 03:13:52;;;;;;;27.10;10.95;;;18.00;99.90;;;;;;2080668;28;20029;-63
2021/10/19 03:14:53;;;;;;;28.05;11.10;;;18.00;99.90;;;;;;2079343;28;20030;-62
2021/10/19 03:15:57;;;;;;;25.00;10.70;;;18.00;99.90;;;;;;2080698;28;20065;-62
2021/10/19 03:16:57;;;;;;;23.27;11.20;;;18.00;99.90;;;;;;2078674;28;20021;-63
2021/10/19 03:17:58;;;;;;;22.27;11.13;;;18.00;99.90;;;;;;2080377;28;20565;-63
2021/10/19 03:18:59;;;;;;;27.45;10.80;;;18.00;99.90;;;;;;2083860;28;20032;-63
2021/10/19 03:19:59;;;;;;;28.65;10.93;;;18.00;99.90;;;;;;2088316;28;20105;-63
2021/10/19 03:21:00;;;;;;;29.52;11.90;;;18.00;99.90;;;;;;2085201;28;20151;-63
2021/10/19 03:22:01;;;;;;;26.73;11.52;;;18.00;99.90;;;;;;2087855;28;20029;-63
2021/10/19 03:23:02;;;;;;;24.17;11.07;;;18.00;99.90;;;;;;2096254;28;20436;-63
2021/10/19 03:24:03;;;;;;;21.65;10.32;;;18.00;99.90;;;;;;2079583;28;20053;-63
2021/10/19 03:25:05;;;;;;;21.85;11.10;;;18.00;99.90;;;;;;2080005;28;20100;-63
2021/10/19 03:26:05;;;;;;;25.17;11.45;;;18.00;99.90;;;;;;2080301;28;20033;-63
2021/10/19 03:27:06;;;;;;;21.33;11.93;;;18.00;99.90;;;;;;2080263;28;20372;-63
2021/10/19 03:28:07;;;;;;;28.70;12.00;;;18.00;99.90;;;;;;2080513;28;20049;-63
2021/10/19 03:29:08;;;;;;;18.73;11.00;;;18.00;99.90;;;;;;2084575;28;20013;-63
2021/10/19 03:30:09;;;;;;;21.90;11.57;;;18.00;99.90;;;;;;2087438;28;20366;-63
2021/10/19 03:31:10;;;;;;;21.60;11.30;;;18.00;99.90;;;;;;2080658;28;20028;-63
2021/10/19 03:32:10;;;;;;;26.17;11.73;;;18.00;99.90;;;;;;2088189;28;20116;-63
2021/10/19 03:33:11;;;;;;;21.73;11.15;;;17.90;99.90;;;;;;2080944;28;20041;-63
2021/10/19 03:34:12;;;;;;;20.20;11.20;;;17.90;99.90;;;;;;2084430;28;20021;-63
2021/10/19 03:35:13;;;;;;;22.92;11.75;;;17.90;99.90;;;;;;2088817;28;20021;-63
2021/10/19 03:36:13;;;;;;;23.30;11.20;;;18.00;99.90;;;;;;2081534;28;20481;-63
2021/10/19 03:37:14;;;;;;;22.13;11.32;;;17.90;99.90;;;;;;2080112;28;20025;-63
2021/10/19 03:38:15;;;;;;;24.67;11.93;;;17.90;99.90;;;;;;2079837;28;20029;-63
2021/10/19 03:39:15;;;;;;;22.65;11.50;;;17.90;99.90;;;;;;2079231;28;20512;-63
2021/10/19 03:40:16;;;;;;;24.50;12.90;;;17.90;99.90;;;;;;2081623;28;20036;-63
2021/10/19 03:41:17;;;;;;;22.83;11.65;;;17.90;99.90;;;;;;2088464;28;20071;-63
2021/10/19 03:42:17;;;;;;;23.08;12.52;;;17.90;99.90;;;;;;2087373;28;20492;-63
2021/10/19 03:43:18;;;;;;;20.35;12.25;;;17.90;99.90;;;;;;2088067;28;20064;-63
2021/10/19 03:44:19;;;;;;;20.15;12.38;;;17.90;99.90;;;;;;2087747;28;20049;-63
2021/10/19 03:45:20;;;;;;;22.60;12.85;;;17.90;99.90;;;;;;2078122;28;20017;-63
2021/10/19 03:46:20;;;;;;;21.75;13.05;;;17.90;99.90;;;;;;2079891;28;20022;-63
2021/10/19 03:47:21;;;;;;;22.75;13.38;;;17.90;99.90;;;;;;2078039;28;20045;-63
2021/10/19 03:48:22;;;;;;;26.70;14.27;;;17.90;99.90;;;;;;2086013;28;20044;-63
2021/10/19 03:49:23;;;;;;;23.95;12.65;;;17.90;99.90;;;;;;2087628;28;20777;-63
2021/10/19 03:50:23;;;;;;;24.60;13.77;;;17.90;99.90;;;;;;2089250;28;20027;-63
2021/10/19 03:51:24;;;;;;;25.52;14.32;;;17.90;99.90;;;;;;2090362;28;20021;-63
2021/10/19 03:52:25;;;;;;;28.20;15.10;;;17.90;99.90;;;;;;2086610;28;20103;-63
2021/10/19 03:53:25;;;;;;;27.88;15.05;;;17.80;99.90;;;;;;2081764;28;20092;-63
2021/10/19 03:54:26;;;;;;;27.80;15.00;;;17.90;99.90;;;;;;2081822;28;20028;-63
2021/10/19 03:55:27;;;;;;;31.88;15.68;;;17.90;99.90;;;;;;2080739;28;20076;-63
2021/10/19 03:56:28;;;;;;;28.58;15.48;;;17.80;99.90;;;;;;2078206;28;20037;-63
2021/10/19 03:57:28;;;;;;;27.88;15.40;;;17.90;99.90;;;;;;2085989;28;20018;-63
2021/10/19 03:58:29;;;;;;;32.58;15.77;;;17.80;99.90;;;;;;2080834;28;20045;-62
2021/10/19 03:59:30;;;;;;;28.90;16.13;;;17.80;99.90;;;;;;2084496;28;20021;-64
2021/10/19 04:00:31;;;;;;;27.52;17.00;;;17.90;99.90;;;;;;2089140;28;20034;-63
2021/10/19 04:01:31;;;;;;;32.95;16.98;;;17.90;99.90;;;;;;2089825;28;20025;-62
2021/10/19 04:02:32;;;;;;;26.52;16.05;;;17.90;99.90;;;;;;2087075;28;20131;-62
2021/10/19 04:03:33;;;;;;;29.20;16.17;;;17.90;99.90;;;;;;2081212;28;20112;-63
2021/10/19 04:04:35;;;;;;;30.65;17.48;;;17.90;99.90;;;;;;2081279;28;20056;-63
2021/10/19 04:05:36;;;;;;;36.70;16.95;;;17.80;99.90;;;;;;2089686;28;20048;-63
2021/10/19 04:06:38;;;;;;;29.00;17.58;;;17.80;99.90;;;;;;2089389;28;20024;-63
2021/10/19 04:07:38;;;;;;;38.90;17.50;;;17.90;99.90;;;;;;2088543;28;20021;-63
2021/10/19 04:08:39;;;;;;;34.95;17.85;;;17.90;99.90;;;;;;2080893;28;20026;-63
2021/10/19 04:09:41;;;;;;;34.20;17.83;;;17.90;99.90;;;;;;2082697;28;20033;-62
2021/10/19 04:10:41;;;;;;;36.40;19.08;;;17.90;99.90;;;;;;2085786;28;20028;-62
2021/10/19 04:11:42;;;;;;;35.28;17.70;;;17.90;99.90;;;;;;2084937;28;20102;-63
2021/10/19 04:12:43;;;;;;;32.38;17.35;;;17.90;99.90;;;;;;2089939;28;20017;-62
2021/10/19 04:13:43;;;;;;;33.70;18.10;;;17.90;99.90;;;;;;2089937;28;20036;-63
2021/10/19 04:14:44;;;;;;;32.72;17.85;;;17.90;99.90;;;;;;2086182;28;20021;-62
2021/10/19 04:15:45;;;;;;;36.45;18.10;;;17.90;99.90;;;;;;2090197;28;20464;-62
2021/10/19 04:16:45;;;;;;;34.15;18.33;;;17.80;99.90;;;;;;2084989;28;20044;-62
2021/10/19 04:17:46;;;;;;;38.33;17.98;;;17.90;99.90;;;;;;2079646;28;20100;-62
2021/10/19 04:18:47;;;;;;;32.40;18.27;;;17.90;99.90;;;;;;2083364;28;20105;-62
2021/10/19 04:19:48;;;;;;;32.42;17.65;;;17.80;99.90;;;;;;2088291;28;20067;-62
2021/10/19 04:20:48;;;;;;;36.00;17.83;;;17.90;99.90;;;;;;2089099;28;20584;-62
2021/10/19 04:21:50;;;;;;;34.30;18.63;;;17.80;99.90;;;;;;2087046;28;20063;-63
2021/10/19 04:22:50;;;;;;;37.45;17.75;;;17.90;99.90;;;;;;2087981;28;20113;-63
2021/10/19 04:23:51;;;;;;;32.78;18.30;;;17.90;99.90;;;;;;2081460;28;20030;-63
2021/10/19 04:24:54;;;;;;;30.27;17.67;;;17.80;99.90;;;;;;2088458;28;20028;-62
2021/10/19 04:25:55;;;;;;;40.30;18.38;;;17.90;99.90;;;;;;2086049;28;20021;-62
2021/10/19 04:26:55;;;;;;;32.53;18.83;;;17.80;99.90;;;;;;2087153;28;20546;-62
2021/10/19 04:27:56;;;;;;;39.38;19.58;;;17.90;99.90;;;;;;2089702;28;20070;-63
2021/10/19 04:28:57;;;;;;;32.45;18.05;;;17.80;99.90;;;;;;2087111;28;20025;-62
2021/10/19 04:29:58;;;;;;;30.90;18.40;;;17.80;99.90;;;;;;2081469;28;20056;-62
2021/10/19 04:30:58;;;;;;;36.95;19.08;;;17.80;99.90;;;;;;2081333;28;20052;-62
2021/10/19 04:31:59;;;;;;;35.08;18.45;;;17.90;99.90;;;;;;2081755;28;20022;-63
2021/10/19 04:33:00;;;;;;;32.90;18.48;;;17.80;99.90;;;;;;2081490;28;20025;-63
2021/10/19 04:34:02;;;;;;;36.67;19.15;;;17.80;99.90;;;;;;2081262;28;20026;-63
2021/10/19 04:35:03;;;;;;;34.95;19.55;;;17.90;99.90;;;;;;2085739;28;20036;-63
2021/10/19 04:36:04;;;;;;;33.33;17.88;;;17.80;99.90;;;;;;2075082;28;20053;-63
2021/10/19 04:37:05;;;;;;;35.78;19.60;;;17.80;99.90;;;;;;2087888;28;20064;-63
2021/10/19 04:38:06;;;;;;;32.83;19.05;;;17.80;99.90;;;;;;2089558;28;20431;-63
2021/10/19 04:39:06;;;;;;;33.10;18.33;;;17.80;99.90;;;;;;2089068;28;20048;-63
2021/10/19 04:40:08;;;;;;;30.25;18.58;;;17.80;99.90;;;;;;2080590;28;20041;-62
2021/10/19 04:41:09;;;;;;;39.05;19.23;;;17.80;99.90;;;;;;2080940;28;20022;-62
2021/10/19 04:42:09;;;;;;;34.97;19.35;;;17.80;99.90;;;;;;2084420;28;20049;-62
2021/10/19 04:43:10;;;;;;;34.65;19.30;;;17.80;99.90;;;;;;2080603;28;20029;-62
2021/10/19 04:44:12;;;;;;;36.15;20.63;;;17.80;99.90;;;;;;2082531;28;20055;-63
2021/10/19 04:45:16;;;;;;;;;;;17.80;99.90;;;;;;2082092;28;20095;-63
2021/10/19 04:46:17;;;;;;;41.90;19.70;;;17.80;99.90;;;;;;2086367;28;19904;-63
2021/10/19 04:47:18;;;;;;;36.15;19.40;;;17.80;99.90;;;;;;2088856;28;20504;-63
2021/10/19 04:48:22;;;;;;;36.40;20.00;;;17.80;99.90;;;;;;2084916;28;20014;-63
2021/10/19 04:49:22;;;;;;;36.72;19.85;;;17.80;99.90;;;;;;2081151;28;20497;-63
2021/10/19 04:50:25;;;;;;;38.55;20.42;;;17.80;99.90;;;;;;2081951;28;20021;-63
2021/10/19 04:51:26;;;;;;;33.13;20.60;;;17.80;99.90;;;;;;2089839;28;20009;-63
2021/10/19 04:52:27;;;;;;;37.38;21.00;;;17.80;99.90;;;;;;2084002;28;20861;-63
2021/10/19 04:53:28;;;;;;;32.22;19.67;;;17.80;99.90;;;;;;2083426;28;20041;-63
2021/10/19 04:54:29;;;;;;;47.05;22.33;;;17.80;99.90;;;;;;2084154;28;20585;-63
2021/10/19 04:55:29;;;;;;;35.95;21.23;;;17.80;99.90;;;;;;2088812;28;20017;-62
2021/10/19 04:56:31;;;;;;;35.33;20.63;;;17.90;99.90;;;;;;2080787;28;20370;-63
2021/10/19 04:57:31;;;;;;;38.47;18.92;;;17.90;99.90;;;;;;2080441;28;20696;-63
2021/10/19 04:58:33;;;;;;;35.70;20.05;;;17.90;99.90;;;;;;2081491;28;20034;-63
2021/10/19 04:59:34;;;;;;;35.47;20.83;;;17.80;99.90;;;;;;2081038;28;20436;-63
2021/10/19 05:00:34;;;;;;;35.25;20.90;;;17.90;99.90;;;;;;2080488;28;20082;-63
2021/10/19 05:01:35;;;;;;;30.77;19.80;;;17.80;99.90;;;;;;2084649;28;20500;-62
2021/10/19 05:02:46;;;;;;;38.97;21.10;;;17.90;99.90;;;;;;2089211;28;20096;-62
2021/10/19 05:03:47;;;;;;;36.10;20.15;;;17.80;99.90;;;;;;2081649;28;20037;-63
2021/10/19 05:04:48;;;;;;;36.03;20.17;;;17.90;99.90;;;;;;2088251;28;20013;-63
2021/10/19 05:05:50;;;;;;;33.15;19.20;;;17.80;99.90;;;;;;2087637;28;20028;-63
2021/10/19 05:06:50;;;;;;;40.33;20.23;;;17.90;99.90;;;;;;2081292;28;20377;-63
2021/10/19 05:07:51;;;;;;;33.63;19.98;;;17.90;99.90;;;;;;2093041;28;20048;-63
2021/10/19 05:08:52;;;;;;;37.10;20.25;;;17.80;99.90;;;;;;2097408;28;20016;-62
2021/10/19 05:09:52;;;;;;;36.83;20.63;;;17.80;99.90;;;;;;2081273;28;20110;-63
2021/10/19 05:10:53;;;;;;;34.22;20.52;;;17.80;99.90;;;;;;2088597;28;20025;-63